Accueil
METAR-TAF:

METAR-TAF

Aéroports :

Aéroport Federico-Fellini

Rimini, Italie

latitude: 44-02N, longitude: 012-37E, altitude: 12 m

Observation

Le bulletin a été fait il y a 35 minutes, à 20:50 UTC
Vent 5 kt de sud/sud-ouest
Température 16°C
Humidité 94%
Pression 1004 hPa
Visibilité 10 km ou plus

METAR: LIPR 262050Z AUTO 20005KT 9999 NCD 16/15 Q1004

Heure: 23:25 (21:25 UTC)

Prévision

Le bulletin a été fait il y a 4 heures et 25 minutes, à 17:00 UTC
Prévision valable du 26 à 18 UTC au 27 à 18 UTC
Vent 5 kt de direction variable
Visibilité 10 km ou plus
Quelques nuages à une hauteur de 4000 ft
Temporairement
du 26 à 18 UTC au 26 à 21 UTC
pluie
Evoluant progressivement
du 27 à 07 UTC au 27 à 09 UTC
Vent 12 kt de sud-ouest

TAF: LIPR 261700Z 2618/2718 VRB05KT 9999 FEW040 TEMPO 2618/2621 RA BECMG 2707/2709 23012KT

Observations et prévisions météorologiques de plus de 4000 aéroports (messages METAR et TAF).

Les stations disponibles sont représentées par des disques jaunes et rouges sur la carte.

Passer la souris dessus pour voir le nom de la station.

Cliquer dessus pour voir les observations et prévisions météorologiques.

Pour changer de carte: cliquez sur les boutons verts avec une croix noire pour zoomer, sur le bouton vert avec un tiret pour effectuer un zoom arrière, ou sur les flèches vertes pour les cartes adjacentes.


METAR-TAF: